Time;durP1;ratioP1;P1;durP2;ratioP2;P2;SDS_P1;SDS_P2;PMS_P1;PMS_P2;Temp;Humidity;BMP_temperature;BMP_pressure;BME280_temperature;BME280_humidity;BME280_pressure;Samples;Min_cycle;Max_cycle;Signal;HPM_P1;HPM_P2
2021/10/31 00:00:22;;;;;;;32.47;23.37;;;8.50;99.90;;;;;;4996443;28;20286;-80
2021/10/31 00:02:48;;;;;;;32.03;23.80;;;8.50;99.90;;;;;;4996888;28;20199;-82
2021/10/31 00:05:14;;;;;;;29.30;21.93;;;8.50;99.90;;;;;;4996441;28;20204;-81
2021/10/31 00:07:39;;;;;;;24.27;21.67;;;8.40;99.90;;;;;;4996938;28;20310;-81
2021/10/31 00:10:06;;;;;;;24.83;20.47;;;8.50;99.90;;;;;;4997289;28;20195;-83
2021/10/31 00:12:32;;;;;;;28.67;22.00;;;8.60;99.90;;;;;;4997032;28;20180;-83
2021/10/31 00:14:58;;;;;;;26.23;21.33;;;8.60;99.90;;;;;;4996165;28;20186;-81
2021/10/31 00:17:23;;;;;;;27.13;22.30;;;8.60;99.90;;;;;;4999574;28;20175;-81
2021/10/31 00:19:49;;;;;;;27.37;21.57;;;8.60;99.90;;;;;;5002210;28;20195;-82
2021/10/31 00:22:15;;;;;;;26.87;21.40;;;8.60;99.90;;;;;;5000805;28;20179;-81
2021/10/31 00:24:41;;;;;;;29.47;23.70;;;8.60;99.90;;;;;;4999142;28;20199;-82
2021/10/31 00:27:07;;;;;;;26.70;21.27;;;8.60;99.90;;;;;;4993445;28;20180;-81
2021/10/31 00:29:32;;;;;;;27.20;20.70;;;8.70;99.90;;;;;;5000344;28;20715;-82
2021/10/31 00:31:58;;;;;;;28.27;20.60;;;8.60;99.90;;;;;;5001125;28;20184;-81
2021/10/31 00:34:24;;;;;;;24.17;21.57;;;8.70;99.90;;;;;;5000328;28;20666;-83
2021/10/31 00:36:50;;;;;;;26.70;21.10;;;8.60;99.90;;;;;;5000104;28;20225;-83
2021/10/31 00:39:15;;;;;;;25.53;20.77;;;8.60;99.90;;;;;;5000745;28;20187;-81
2021/10/31 00:41:41;;;;;;;27.20;20.83;;;8.70;99.90;;;;;;4998873;28;20733;-81
2021/10/31 00:44:07;;;;;;;25.90;21.03;;;8.70;99.90;;;;;;5000618;28;20239;-83
2021/10/31 00:46:32;;;;;;;26.10;21.17;;;8.70;99.90;;;;;;4999428;28;20681;-83
2021/10/31 00:48:58;;;;;;;29.03;22.30;;;8.70;99.90;;;;;;4999415;28;20854;-82
2021/10/31 00:51:28;;;;;;;29.10;21.97;;;8.60;99.90;;;;;;4998175;28;20215;-82
2021/10/31 00:53:58;;;;;;;25.67;20.73;;;8.70;99.90;;;;;;4986945;28;20210;-82
2021/10/31 00:56:24;;;;;;;30.40;21.90;;;8.70;99.90;;;;;;4999657;28;20192;-83
2021/10/31 00:58:51;;;;;;;28.20;22.47;;;8.70;99.90;;;;;;4999737;28;20685;-83
2021/10/31 01:01:17;;;;;;;24.50;21.10;;;8.80;99.90;;;;;;4999204;28;20199;-81
2021/10/31 01:03:43;;;;;;;24.43;20.43;;;8.70;99.90;;;;;;5014207;28;20200;-83
2021/10/31 01:06:40;;;;;;;26.37;21.43;;;8.70;99.90;;;;;;4998507;28;20254;-83
2021/10/31 01:09:21;;;;;;;31.23;22.10;;;8.70;99.90;;;;;;4999116;28;20186;-82
2021/10/31 01:12:05;;;;;;;24.83;20.60;;;8.60;99.90;;;;;;4999894;28;20180;-82
2021/10/31 01:15:01;;;;;;;26.60;21.97;;;8.70;99.90;;;;;;4984944;28;20516;-81
2021/10/31 01:18:18;;;;;;;30.23;23.87;;;8.70;99.90;;;;;;4999601;28;20671;-83
2021/10/31 01:21:12;;;;;;;30.57;23.07;;;8.80;99.90;;;;;;4988157;28;20212;-82
2021/10/31 01:23:52;;;;;;;28.13;23.00;;;8.80;99.90;;;;;;4995583;28;20214;-82
2021/10/31 01:26:41;;;;;;;26.87;21.63;;;8.80;99.90;;;;;;4998062;28;20218;-82
2021/10/31 01:29:25;;;;;;;26.87;22.13;;;8.80;99.90;;;;;;4999601;28;20588;-81
2021/10/31 01:32:11;;;;;;;25.60;21.97;;;8.80;99.90;;;;;;4986442;28;20168;-82
2021/10/31 01:35:02;;;;;;;26.33;20.70;;;8.90;99.90;;;;;;4998117;28;20574;-81
2021/10/31 01:37:56;;;;;;;27.70;21.67;;;8.80;99.90;;;;;;4998447;28;20266;-83
2021/10/31 01:40:45;;;;;;;26.40;22.07;;;8.80;99.90;;;;;;4998408;28;20286;-82
2021/10/31 01:43:34;;;;;;;26.77;21.93;;;8.80;99.90;;;;;;4997104;28;20192;-82
2021/10/31 01:46:11;;;;;;;25.50;20.97;;;8.90;99.90;;;;;;5007936;28;20231;-83
2021/10/31 01:49:18;;;;;;;28.63;21.37;;;8.90;99.90;;;;;;4994529;28;20178;-82
2021/10/31 01:51:58;;;;;;;25.67;20.87;;;8.80;99.90;;;;;;4996832;28;20195;-83
2021/10/31 01:54:37;;;;;;;55.87;33.37;;;8.80;99.90;;;;;;4993122;28;20207;-83
2021/10/31 01:57:07;;;;;;;42.97;26.60;;;8.80;99.90;;;;;;4998147;28;20179;-83
2021/10/31 01:59:46;;;;;;;34.87;24.80;;;8.80;99.90;;;;;;4990553;28;20674;-83
2021/10/31 02:02:14;;;;;;;34.30;24.37;;;8.80;99.90;;;;;;4994933;28;20183;-83
2021/10/31 02:04:42;;;;;;;33.37;24.20;;;8.80;99.90;;;;;;4991708;28;20207;-84
2021/10/31 02:07:10;;;;;;;24.33;21.33;;;8.80;99.90;;;;;;4993223;28;20634;-83
2021/10/31 02:09:37;;;;;;;29.07;22.40;;;8.80;99.90;;;;;;4992438;28;20197;-83
2021/10/31 02:12:05;;;;;;;27.57;21.53;;;8.80;99.90;;;;;;4995816;28;20191;-83
2021/10/31 02:14:33;;;;;;;25.07;20.77;;;8.80;99.90;;;;;;4988804;28;20238;-83
2021/10/31 02:16:59;;;;;;;23.20;20.10;;;8.80;99.90;;;;;;4987320;28;20181;-83
2021/10/31 02:19:35;;;;;;;25.03;20.13;;;8.80;99.90;;;;;;4988734;28;20662;-83
2021/10/31 02:22:03;;;;;;;31.77;24.20;;;8.80;99.90;;;;;;4987787;28;20191;-83
2021/10/31 02:24:29;;;;;;;29.03;23.00;;;8.70;99.90;;;;;;4990016;28;20203;-83
2021/10/31 02:26:56;;;;;;;29.40;22.90;;;8.70;99.90;;;;;;4993612;28;20176;-83
2021/10/31 02:29:21;;;;;;;23.00;20.47;;;8.70;99.90;;;;;;4985359;28;20200;-83
2021/10/31 02:31:47;;;;;;;26.27;20.80;;;8.60;99.90;;;;;;4999042;28;20180;-82
2021/10/31 02:34:14;;;;;;;23.17;19.77;;;8.70;99.90;;;;;;4997715;28;20187;-82
2021/10/31 02:36:39;;;;;;;25.03;20.47;;;8.60;99.90;;;;;;4997963;28;20191;-83
2021/10/31 02:39:08;;;;;;;25.00;20.00;;;8.60;99.90;;;;;;4999988;28;20188;-81
2021/10/31 02:41:35;;;;;;;24.47;18.93;;;8.60;99.90;;;;;;4999333;28;20175;-83
2021/10/31 02:44:01;;;;;;;24.83;20.37;;;8.70;99.90;;;;;;4998024;28;20238;-83
2021/10/31 02:46:31;;;;;;;24.33;20.20;;;8.70;99.90;;;;;;4998845;28;20172;-83
2021/10/31 02:48:58;;;;;;;22.17;18.83;;;8.70;99.90;;;;;;4999156;28;20180;-82
2021/10/31 02:51:42;;;;;;;25.90;20.50;;;8.60;99.90;;;;;;4997168;28;20227;-83
2021/10/31 02:54:26;;;;;;;27.20;21.20;;;8.60;99.90;;;;;;4997646;28;20188;-83
2021/10/31 02:57:26;;;;;;;23.13;19.70;;;8.60;99.90;;;;;;4997555;28;20201;-83
2021/10/31 02:59:56;;;;;;;22.90;19.07;;;8.60;99.90;;;;;;4998699;28;20211;-82
2021/10/31 03:02:23;;;;;;;23.73;18.87;;;8.50;99.90;;;;;;5007235;28;20195;-83
2021/10/31 03:04:50;;;;;;;21.80;17.33;;;8.50;99.90;;;;;;4993832;28;20303;-82
2021/10/31 03:07:17;;;;;;;20.47;18.23;;;8.60;99.90;;;;;;4990979;28;20223;-84
2021/10/31 03:09:47;;;;;;;22.57;18.60;;;8.40;99.90;;;;;;4997995;28;20235;-83
2021/10/31 03:12:12;;;;;;;20.43;17.87;;;8.50;99.90;;;;;;4996317;28;20191;-82
2021/10/31 03:14:38;;;;;;;21.10;18.80;;;8.50;99.90;;;;;;4996873;28;20176;-83
2021/10/31 03:17:05;;;;;;;22.97;19.13;;;8.50;99.90;;;;;;4999001;28;20179;-82
2021/10/31 03:19:31;;;;;;;26.03;19.87;;;8.50;99.90;;;;;;4996863;28;20282;-82
2021/10/31 03:21:58;;;;;;;21.57;18.87;;;8.40;99.90;;;;;;4998172;28;20229;-83
2021/10/31 03:24:23;;;;;;;21.63;19.30;;;8.40;99.90;;;;;;4996758;28;20211;-83
2021/10/31 03:26:49;;;;;;;23.87;20.33;;;8.40;99.90;;;;;;4998074;28;20191;-83
2021/10/31 03:29:15;;;;;;;23.37;18.73;;;8.40;99.90;;;;;;5002005;28;20549;-82
2021/10/31 03:31:40;;;;;;;21.50;19.20;;;8.40;99.90;;;;;;5000835;28;20184;-83
2021/10/31 03:34:06;;;;;;;20.00;17.83;;;8.40;99.90;;;;;;5001269;28;20191;-83
2021/10/31 03:36:32;;;;;;;21.40;18.30;;;8.40;99.90;;;;;;5002660;28;20631;-83
2021/10/31 03:38:58;;;;;;;20.93;17.73;;;8.30;99.90;;;;;;5002308;28;20179;-82
2021/10/31 03:41:23;;;;;;;21.37;18.03;;;8.30;99.90;;;;;;5001310;28;20203;-83
2021/10/31 03:43:49;;;;;;;22.20;18.57;;;8.30;99.90;;;;;;4997885;28;20686;-82
2021/10/31 03:46:15;;;;;;;23.03;19.07;;;8.20;99.90;;;;;;4997709;28;20643;-81
2021/10/31 03:48:40;;;;;;;20.13;18.00;;;8.20;99.90;;;;;;5003254;28;20191;-82
2021/10/31 03:51:07;;;;;;;19.63;17.50;;;8.10;99.90;;;;;;5006447;28;20224;-83
2021/10/31 03:53:32;;;;;;;20.37;16.93;;;8.00;99.90;;;;;;5003257;28;20183;-83
2021/10/31 03:55:58;;;;;;;19.97;17.43;;;8.10;99.90;;;;;;5001770;28;20176;-82
2021/10/31 03:58:24;;;;;;;18.70;16.70;;;8.00;99.90;;;;;;5002138;28;20184;-83
2021/10/31 04:00:49;;;;;;;20.07;17.13;;;7.90;99.90;;;;;;5000459;28;20211;-83
2021/10/31 04:03:15;;;;;;;18.50;16.40;;;8.00;99.90;;;;;;5017323;28;20180;-82
2021/10/31 04:05:41;;;;;;;20.93;17.63;;;7.90;99.90;;;;;;5000752;28;20187;-82
2021/10/31 04:08:06;;;;;;;19.10;17.03;;;7.90;99.90;;;;;;5001561;28;20176;-83
2021/10/31 04:10:32;;;;;;;23.97;18.77;;;7.90;99.90;;;;;;5001191;28;20195;-82
2021/10/31 04:12:58;;;;;;;20.33;17.13;;;7.90;99.90;;;;;;5002508;28;20180;-82
2021/10/31 04:15:24;;;;;;;20.60;17.93;;;7.90;99.90;;;;;;5001567;28;20181;-83
2021/10/31 04:17:50;;;;;;;22.10;17.83;;;7.90;99.90;;;;;;5000966;28;20183;-82
2021/10/31 04:20:16;;;;;;;19.63;17.50;;;7.90;99.90;;;;;;5002004;28;20207;-83
2021/10/31 04:22:42;;;;;;;19.27;17.23;;;7.90;99.90;;;;;;5001767;28;20179;-83
2021/10/31 04:25:08;;;;;;;20.70;18.00;;;7.80;99.90;;;;;;5002271;28;20199;-83
2021/10/31 04:27:34;;;;;;;19.00;16.97;;;7.80;99.90;;;;;;5001717;28;20270;-83
2021/10/31 04:30:00;;;;;;;20.17;18.00;;;7.80;99.90;;;;;;4999800;28;20223;-82
2021/10/31 04:32:26;;;;;;;20.03;17.80;;;7.90;99.90;;;;;;5001095;28;20176;-83
2021/10/31 04:34:52;;;;;;;20.60;18.40;;;7.90;99.90;;;;;;5000117;28;20257;-83
2021/10/31 04:37:18;;;;;;;23.93;18.50;;;7.80;99.90;;;;;;5000501;28;20190;-82
2021/10/31 04:39:45;;;;;;;20.70;17.67;;;7.80;99.90;;;;;;4999978;28;20198;-83
2021/10/31 04:42:11;;;;;;;22.63;17.47;;;7.80;99.90;;;;;;4991141;28;20206;-83
2021/10/31 04:44:38;;;;;;;18.57;16.70;;;7.90;99.90;;;;;;5000908;28;20266;-83
2021/10/31 04:47:04;;;;;;;18.77;16.83;;;7.90;99.90;;;;;;5000148;28;20171;-83
2021/10/31 04:49:31;;;;;;;20.07;16.37;;;7.90;99.90;;;;;;5001114;28;20348;-83
2021/10/31 04:51:58;;;;;;;19.20;17.20;;;7.80;99.90;;;;;;4998747;28;20163;-83
2021/10/31 04:54:24;;;;;;;18.37;16.47;;;7.80;99.90;;;;;;5000743;28;20216;-83
2021/10/31 04:56:50;;;;;;;18.77;16.77;;;7.80;99.90;;;;;;5000238;28;20179;-83
2021/10/31 04:59:16;;;;;;;21.07;17.43;;;7.80;99.90;;;;;;5000579;28;20186;-81
2021/10/31 05:01:43;;;;;;;18.57;16.63;;;7.80;99.90;;;;;;4994395;28;20651;-83
2021/10/31 05:04:08;;;;;;;19.20;17.30;;;7.70;99.90;;;;;;4998608;28;20206;-83
2021/10/31 05:06:34;;;;;;;26.20;17.03;;;7.80;99.90;;;;;;4993636;28;20186;-83
2021/10/31 05:09:00;;;;;;;27.07;16.87;;;7.80;99.90;;;;;;4999650;28;20210;-83
2021/10/31 05:11:25;;;;;;;19.73;17.73;;;7.70;99.90;;;;;;4999526;28;20253;-83
2021/10/31 05:13:51;;;;;;;22.67;17.87;;;7.80;99.90;;;;;;5000779;28;20207;-82
2021/10/31 05:16:17;;;;;;;19.10;17.20;;;7.70;99.90;;;;;;4999292;28;20207;-82
2021/10/31 05:18:42;;;;;;;19.50;17.60;;;7.80;99.90;;;;;;5000940;28;20170;-82
2021/10/31 05:21:08;;;;;;;18.27;16.67;;;7.80;99.90;;;;;;4999613;28;20199;-83
2021/10/31 05:23:34;;;;;;;18.53;16.63;;;7.90;99.90;;;;;;5000578;28;20683;-83
2021/10/31 05:26:00;;;;;;;20.70;18.57;;;7.80;99.90;;;;;;4999290;28;20182;-83
2021/10/31 05:28:26;;;;;;;20.17;18.27;;;7.80;99.90;;;;;;5000108;28;20926;-83
2021/10/31 05:30:53;;;;;;;20.07;18.07;;;7.80;99.90;;;;;;5000100;28;20250;-82
2021/10/31 05:33:20;;;;;;;20.13;17.67;;;7.80;99.90;;;;;;5000083;28;20179;-81
2021/10/31 05:35:46;;;;;;;20.33;18.33;;;7.80;99.90;;;;;;4998125;28;20180;-82
2021/10/31 05:38:17;;;;;;;23.33;19.60;;;7.80;99.90;;;;;;4996639;28;20181;-82
2021/10/31 05:40:43;;;;;;;29.27;19.37;;;7.80;99.90;;;;;;4996526;28;20219;-83
2021/10/31 05:43:09;;;;;;;39.03;18.73;;;7.80;99.90;;;;;;4997022;28;20172;-83
2021/10/31 05:45:35;;;;;;;21.27;18.97;;;7.80;99.90;;;;;;4999989;28;20199;-82
2021/10/31 05:48:01;;;;;;;19.97;18.00;;;7.90;99.90;;;;;;4998477;28;20182;-83
2021/10/31 05:50:27;;;;;;;20.10;18.20;;;7.80;99.90;;;;;;4997574;28;20215;-82
2021/10/31 05:52:53;;;;;;;21.10;18.97;;;7.90;99.90;;;;;;4997980;28;20568;-83
2021/10/31 05:55:18;;;;;;;21.20;19.03;;;7.80;99.90;;;;;;5012739;28;20176;-83
2021/10/31 05:57:45;;;;;;;18.93;17.20;;;7.80;99.90;;;;;;4995827;28;20206;-83
2021/10/31 06:00:13;;;;;;;21.00;18.87;;;7.80;99.90;;;;;;4994674;28;20321;-83
2021/10/31 06:02:39;;;;;;;22.53;20.13;;;7.70;99.90;;;;;;4991808;28;20584;-83
2021/10/31 06:05:06;;;;;;;23.17;19.73;;;7.70;99.90;;;;;;4995444;28;20200;-83
2021/10/31 06:07:32;;;;;;;23.83;20.33;;;7.80;99.90;;;;;;4997095;28;20172;-83
2021/10/31 06:09:58;;;;;;;27.17;21.40;;;7.80;99.90;;;;;;4998064;28;20532;-82
2021/10/31 06:12:24;;;;;;;25.03;20.93;;;7.80;99.90;;;;;;4992229;28;20520;-83
2021/10/31 06:14:50;;;;;;;22.47;20.07;;;7.80;99.90;;;;;;4996366;28;20566;-83
2021/10/31 06:17:16;;;;;;;22.27;19.83;;;7.80;99.90;;;;;;4997778;28;20183;-83
2021/10/31 06:19:42;;;;;;;22.20;19.87;;;7.80;99.90;;;;;;4995314;28;20686;-82
2021/10/31 06:22:08;;;;;;;21.40;19.17;;;7.80;99.90;;;;;;4989514;28;20184;-83
2021/10/31 06:24:33;;;;;;;22.07;19.90;;;7.80;99.90;;;;;;4998409;28;20192;-83
2021/10/31 06:26:59;;;;;;;22.20;19.90;;;7.80;99.90;;;;;;4992614;28;20235;-82
2021/10/31 06:29:25;;;;;;;23.90;21.40;;;7.80;99.90;;;;;;4996275;28;20199;-83
2021/10/31 06:31:52;;;;;;;25.00;21.90;;;7.80;99.90;;;;;;4997343;28;20218;-83
2021/10/31 06:34:18;;;;;;;26.37;21.47;;;7.80;99.90;;;;;;4991732;28;20833;-83
2021/10/31 06:36:44;;;;;;;22.40;20.07;;;7.90;99.90;;;;;;4994002;28;20187;-83
2021/10/31 06:39:10;;;;;;;21.83;19.60;;;7.90;99.90;;;;;;4998048;28;20187;-83
2021/10/31 06:41:36;;;;;;;21.30;19.10;;;7.90;99.90;;;;;;4994244;28;20253;-83
2021/10/31 06:44:02;;;;;;;21.73;19.43;;;8.00;99.90;;;;;;4991191;28;20233;-82
2021/10/31 06:46:27;;;;;;;21.03;18.83;;;8.00;99.90;;;;;;4998270;28;20322;-82
2021/10/31 06:48:53;;;;;;;22.07;19.67;;;8.00;99.90;;;;;;4996534;28;20526;-83
2021/10/31 06:51:20;;;;;;;21.87;19.67;;;8.00;99.90;;;;;;4999393;28;20623;-83
2021/10/31 06:53:46;;;;;;;20.93;18.80;;;8.10;99.90;;;;;;4995278;28;20565;-83
2021/10/31 06:56:13;;;;;;;21.47;18.87;;;8.10;99.90;;;;;;4998080;28;20184;-82
2021/10/31 06:58:39;;;;;;;22.47;19.33;;;8.20;99.90;;;;;;4998193;28;20181;-82
2021/10/31 07:01:04;;;;;;;22.93;20.43;;;8.10;99.90;;;;;;4998132;28;20328;-84
2021/10/31 07:03:30;;;;;;;21.50;19.30;;;8.10;99.90;;;;;;4996248;28;20183;-84
2021/10/31 07:05:56;;;;;;;22.87;20.43;;;8.20;99.90;;;;;;4996373;28;20200;-83
2021/10/31 07:08:22;;;;;;;22.47;20.10;;;8.10;99.90;;;;;;4997823;28;20176;-83
2021/10/31 07:10:48;;;;;;;22.90;20.40;;;8.10;99.90;;;;;;4997151;28;20198;-82
2021/10/31 07:13:13;;;;;;;22.50;20.10;;;8.10;99.90;;;;;;4997285;28;20176;-83
2021/10/31 07:15:39;;;;;;;23.97;20.53;;;8.20;99.90;;;;;;4999115;28;20184;-82
2021/10/31 07:18:05;;;;;;;22.40;19.63;;;8.20;99.90;;;;;;5000749;28;20186;-83
2021/10/31 07:20:31;;;;;;;22.80;20.40;;;8.30;99.90;;;;;;4998677;28;20215;-83
2021/10/31 07:22:58;;;;;;;26.57;21.20;;;8.30;99.90;;;;;;4998331;28;20180;-82
2021/10/31 07:25:25;;;;;;;24.40;21.23;;;8.30;99.90;;;;;;4995762;28;20621;-82
2021/10/31 07:27:52;;;;;;;24.87;20.37;;;8.30;99.90;;;;;;4998439;28;20215;-82
2021/10/31 07:30:18;;;;;;;23.63;21.07;;;8.30;99.90;;;;;;4998702;28;20192;-83
2021/10/31 07:32:44;;;;;;;23.40;20.20;;;8.40;99.90;;;;;;4998961;28;20180;-82
2021/10/31 07:35:12;;;;;;;24.77;20.97;;;8.40;99.90;;;;;;5000648;28;20295;-83
2021/10/31 07:37:38;;;;;;;23.07;20.23;;;8.40;99.90;;;;;;5001257;28;20704;-83
2021/10/31 07:40:07;;;;;;;22.83;20.43;;;8.40;99.90;;;;;;5000707;28;20195;-84
2021/10/31 07:42:33;;;;;;;22.30;20.03;;;8.50;99.90;;;;;;4990772;28;20180;-82
2021/10/31 07:44:59;;;;;;;30.17;24.13;;;8.60;99.90;;;;;;5010392;28;20667;-82
2021/10/31 07:47:25;;;;;;;30.27;24.03;;;8.60;99.90;;;;;;4998975;28;20183;-83
2021/10/31 07:49:51;;;;;;;24.10;21.27;;;8.60;99.90;;;;;;4999226;28;20235;-83
2021/10/31 07:52:18;;;;;;;25.53;21.73;;;8.70;99.90;;;;;;5000473;28;20164;-83
2021/10/31 07:54:45;;;;;;;23.80;21.10;;;8.80;99.90;;;;;;4999917;28;20192;-83
2021/10/31 07:57:11;;;;;;;25.57;20.90;;;8.80;99.90;;;;;;5000517;28;20275;-82
2021/10/31 07:59:37;;;;;;;26.53;21.83;;;8.90;99.90;;;;;;4998149;28;20709;-83
2021/10/31 08:02:04;;;;;;;26.07;22.00;;;8.90;99.90;;;;;;4999743;28;20183;-81
2021/10/31 08:04:31;;;;;;;24.87;21.37;;;9.00;99.90;;;;;;5001933;28;20199;-79
2021/10/31 08:06:57;;;;;;;28.07;22.63;;;9.00;99.90;;;;;;5000429;28;20192;-80
2021/10/31 08:09:23;;;;;;;25.33;21.80;;;9.10;99.90;;;;;;4999923;28;20231;-81
2021/10/31 08:11:48;;;;;;;29.30;23.43;;;9.20;99.90;;;;;;5001935;28;20574;-80
2021/10/31 08:14:14;;;;;;;34.00;25.40;;;9.20;99.90;;;;;;4983086;28;20263;-80
2021/10/31 08:16:40;;;;;;;35.33;26.90;;;9.30;99.90;;;;;;4998626;28;20195;-82
2021/10/31 08:19:07;;;;;;;37.87;28.87;;;9.30;99.90;;;;;;5002156;28;20175;-82
2021/10/31 08:21:33;;;;;;;37.27;28.97;;;9.40;99.90;;;;;;5002127;28;20164;-81
2021/10/31 08:23:59;;;;;;;41.50;29.40;;;9.30;99.90;;;;;;5000970;28;20206;-83
2021/10/31 08:26:26;;;;;;;39.43;29.60;;;9.50;99.90;;;;;;5000083;28;20198;-82
2021/10/31 08:28:53;;;;;;;39.20;28.83;;;9.50;99.90;;;;;;5001679;28;20182;-83
2021/10/31 08:31:26;;;;;;;44.50;32.00;;;9.60;99.90;;;;;;5000987;28;20207;-81
2021/10/31 08:33:59;;;;;;;41.87;30.23;;;9.60;99.90;;;;;;5001704;28;20244;-81
2021/10/31 08:36:27;;;;;;;42.37;31.77;;;9.70;99.90;;;;;;5001471;28;20159;-83
2021/10/31 08:38:53;;;;;;;51.50;32.73;;;9.60;99.90;;;;;;5001265;28;20183;-83
2021/10/31 08:41:20;;;;;;;43.60;32.40;;;;;;;;;;5000881;28;20261;-82
2021/10/31 08:43:46;;;;;;;44.83;33.90;;;9.70;99.90;;;;;;5001769;28;20205;-83
2021/10/31 08:46:12;;;;;;;49.53;34.27;;;9.80;99.90;;;;;;5000898;28;20180;-83
2021/10/31 08:48:39;;;;;;;45.57;32.90;;;9.80;99.90;;;;;;4999603;28;20226;-82
2021/10/31 08:51:05;;;;;;;50.30;34.73;;;9.80;99.90;;;;;;4999040;28;20219;-83
2021/10/31 08:53:32;;;;;;;48.67;35.40;;;9.90;99.90;;;;;;4998736;28;20183;-83
2021/10/31 08:55:58;;;;;;;55.13;36.57;;;9.90;99.90;;;;;;5001001;28;20544;-82
2021/10/31 08:58:24;;;;;;;54.00;36.53;;;9.90;99.90;;;;;;4999372;28;20174;-81
2021/10/31 09:00:49;;;;;;;50.03;35.70;;;10.00;99.90;;;;;;4997628;28;20201;-83
2021/10/31 09:03:15;;;;;;;54.43;35.50;;;10.00;99.90;;;;;;4997484;28;20171;-81
2021/10/31 09:05:41;;;;;;;54.33;37.27;;;10.10;99.90;;;;;;4996411;28;20210;-81
2021/10/31 09:08:07;;;;;;;54.37;35.93;;;10.20;99.90;;;;;;4997792;28;20226;-83
2021/10/31 09:10:33;;;;;;;54.83;37.10;;;10.30;99.90;;;;;;4998051;28;20250;-82
2021/10/31 09:12:59;;;;;;;44.50;32.17;;;10.40;99.90;;;;;;4998244;28;20717;-82
2021/10/31 09:15:26;;;;;;;48.57;33.70;;;10.40;99.90;;;;;;4995856;28;20177;-84
2021/10/31 09:17:52;;;;;;;46.30;32.60;;;10.40;99.90;;;;;;4997523;28;20226;-81
2021/10/31 09:20:17;;;;;;;44.93;31.53;;;10.50;99.90;;;;;;4996677;28;20204;-82
2021/10/31 09:22:45;;;;;;;45.63;32.10;;;10.50;99.90;;;;;;4996614;28;20251;-81
2021/10/31 09:25:10;;;;;;;44.10;31.93;;;10.70;99.90;;;;;;4995587;28;20303;-82
2021/10/31 09:27:36;;;;;;;43.80;31.07;;;10.70;99.90;;;;;;4996937;28;20200;-82
2021/10/31 09:30:06;;;;;;;37.23;27.47;;;10.70;99.90;;;;;;4996914;28;20201;-82
2021/10/31 09:32:35;;;;;;;31.90;25.03;;;;;;;;;;4996687;28;20237;-82
2021/10/31 09:35:07;;;;;;;31.03;23.33;;;10.80;99.90;;;;;;4997346;28;20247;-81
2021/10/31 09:37:33;;;;;;;27.90;22.17;;;10.80;99.90;;;;;;4996292;28;20266;-82
2021/10/31 09:40:01;;;;;;;23.70;18.73;;;10.90;99.90;;;;;;4995257;28;20202;-81
2021/10/31 09:42:27;;;;;;;21.37;18.47;;;11.00;99.90;;;;;;4996979;28;20261;-81
2021/10/31 09:44:53;;;;;;;26.17;19.87;;;11.00;99.90;;;;;;4995403;28;20195;-81
2021/10/31 09:47:25;;;;;;;22.03;19.27;;;11.10;99.90;;;;;;4995455;28;20192;-82
2021/10/31 09:49:52;;;;;;;24.27;19.03;;;11.20;99.90;;;;;;4995564;28;20223;-82
2021/10/31 09:52:19;;;;;;;21.33;17.57;;;11.30;99.90;;;;;;4984661;28;20190;-83
2021/10/31 09:54:48;;;;;;;21.00;17.97;;;11.40;99.90;;;;;;4980476;28;20173;-83
2021/10/31 09:57:14;;;;;;;21.03;16.83;;;11.50;99.90;;;;;;4999708;28;20683;-80
2021/10/31 09:59:49;;;;;;;20.67;17.37;;;11.60;99.90;;;;;;4996837;28;20193;-81
2021/10/31 10:05:20;;;;;;;19.87;16.67;;;11.80;99.90;;;;;;4989472;28;20190;-80
2021/10/31 10:07:47;;;;;;;15.93;14.23;;;11.90;99.90;;;;;;4994107;28;20182;-78
2021/10/31 10:10:15;;;;;;;19.17;16.73;;;12.00;99.90;;;;;;4993205;28;20276;-80
2021/10/31 10:12:41;;;;;;;21.57;17.23;;;12.30;99.90;;;;;;4995403;28;20191;-80
2021/10/31 10:15:11;;;;;;;18.43;15.30;;;12.50;99.90;;;;;;4997210;28;20180;-78
2021/10/31 10:17:45;;;;;;;17.53;14.70;;;12.40;99.90;;;;;;4997079;28;20187;-79
2021/10/31 10:20:14;;;;;;;16.73;14.57;;;12.40;99.90;;;;;;4997144;28;20286;-80
2021/10/31 10:22:39;;;;;;;15.00;13.30;;;12.60;99.90;;;;;;4997863;28;20181;-78
2021/10/31 10:25:05;;;;;;;17.23;14.43;;;12.60;99.90;;;;;;4997158;28;20198;-78
2021/10/31 10:27:37;;;;;;;16.23;14.60;;;12.70;99.90;;;;;;4997640;28;20187;-79
2021/10/31 10:30:17;;;;;;;17.57;14.17;;;12.80;99.90;;;;;;4997849;28;20193;-80
2021/10/31 10:32:50;;;;;;;16.00;14.33;;;13.00;99.90;;;;;;4997220;28;20249;-81
2021/10/31 10:35:21;;;;;;;17.40;14.13;;;13.20;99.90;;;;;;4996976;28;20183;-79
2021/10/31 10:37:46;;;;;;;16.50;13.17;;;13.20;99.90;;;;;;4998087;28;20237;-80
2021/10/31 10:40:26;;;;;;;14.37;12.87;;;13.30;99.90;;;;;;4996773;28;20226;-80
2021/10/31 10:42:54;;;;;;;14.63;12.90;;;13.50;99.90;;;;;;4997628;28;20186;-78
2021/10/31 10:45:28;;;;;;;13.30;11.97;;;13.60;99.90;;;;;;4998386;28;20567;-79
2021/10/31 10:48:03;;;;;;;11.93;10.83;;;13.70;99.90;;;;;;4999083;28;20184;-78
2021/10/31 10:50:39;;;;;;;14.17;12.70;;;13.70;99.90;;;;;;4997994;28;20229;-78
2021/10/31 10:53:16;;;;;;;12.53;11.33;;;13.80;99.90;;;;;;5001264;28;20178;-78
2021/10/31 10:55:42;;;;;;;10.13;9.23;;;13.80;99.90;;;;;;5002969;28;20542;-78
2021/10/31 10:58:14;;;;;;;10.97;9.87;;;14.00;99.90;;;;;;5001038;28;20262;-80
2021/10/31 11:00:43;;;;;;;11.00;10.00;;;14.10;99.90;;;;;;5002675;28;20209;-80
2021/10/31 11:03:15;;;;;;;12.37;11.10;;;14.30;99.90;;;;;;5002960;28;20176;-78
2021/10/31 11:05:47;;;;;;;10.90;10.00;;;14.30;99.90;;;;;;5002271;28;20568;-77
2021/10/31 11:08:15;;;;;;;13.80;12.40;;;14.40;99.90;;;;;;5003446;28;20176;-79
2021/10/31 11:10:52;;;;;;;11.93;10.77;;;14.40;99.90;;;;;;5001461;28;20218;-80
2021/10/31 11:13:18;;;;;;;12.33;10.73;;;14.60;99.90;;;;;;5002322;28;20569;-80
2021/10/31 11:15:44;;;;;;;11.70;10.60;;;14.60;99.90;;;;;;5001332;28;20211;-80
2021/10/31 11:18:10;;;;;;;11.40;10.27;;;14.70;99.90;;;;;;5001913;28;20176;-79
2021/10/31 11:20:41;;;;;;;11.50;10.50;;;15.00;99.90;;;;;;5002861;28;20199;-79
2021/10/31 11:23:10;;;;;;;11.77;10.57;;;15.00;99.90;;;;;;5002512;28;20266;-79
2021/10/31 11:25:38;;;;;;;10.57;9.57;;;15.10;99.90;;;;;;5002596;28;20555;-78
2021/10/31 11:28:06;;;;;;;10.30;9.33;;;15.20;99.90;;;;;;5002709;28;20259;-81
2021/10/31 11:30:33;;;;;;;9.90;9.00;;;15.20;99.90;;;;;;5002356;28;20623;-79
2021/10/31 11:33:00;;;;;;;10.70;9.73;;;17.70;99.90;;;;;;5002573;28;20199;-79
2021/10/31 11:35:28;;;;;;;10.27;9.37;;;15.40;99.90;;;;;;5002498;28;20207;-79
2021/10/31 11:38:22;;;;;;;9.53;8.63;;;15.30;99.90;;;;;;5002677;28;20183;-78
2021/10/31 11:41:07;;;;;;;9.13;8.33;;;15.30;99.90;;;;;;5000983;28;20217;-81
2021/10/31 11:43:34;;;;;;;9.67;8.77;;;15.40;99.90;;;;;;5002931;28;20184;-80
2021/10/31 11:46:09;;;;;;;8.90;8.00;;;15.40;99.90;;;;;;5003284;28;20540;-80
2021/10/31 11:48:37;;;;;;;8.53;7.73;;;15.30;99.90;;;;;;5001240;28;20179;-78
2021/10/31 11:51:03;;;;;;;9.17;8.30;;;15.40;99.90;;;;;;5000852;28;20215;-79
2021/10/31 11:53:35;;;;;;;8.53;7.83;;;15.40;99.90;;;;;;4999871;28;20173;-79
2021/10/31 11:56:06;;;;;;;7.20;6.50;;;15.40;99.90;;;;;;5001174;28;20203;-81
2021/10/31 11:58:41;;;;;;;7.47;6.87;;;15.30;99.90;;;;;;5000629;28;20207;-79
2021/10/31 12:01:24;;;;;;;7.63;7.03;;;15.30;99.90;;;;;;4997757;28;20230;-80
2021/10/31 12:03:57;;;;;;;8.00;7.30;;;15.40;99.90;;;;;;4999524;28;20207;-79
2021/10/31 12:06:26;;;;;;;6.77;6.17;;;15.50;99.90;;;;;;4997789;28;20180;-80
2021/10/31 12:08:57;;;;;;;7.63;6.93;;;15.60;99.90;;;;;;4998227;28;20186;-80
2021/10/31 12:11:37;;;;;;;7.40;6.80;;;15.70;99.90;;;;;;4996813;28;20667;-81
2021/10/31 12:14:35;;;;;;;6.87;6.27;;;15.70;99.90;;;;;;4998953;28;20190;-81
2021/10/31 12:17:00;;;;;;;7.50;6.90;;;15.90;99.90;;;;;;4996610;28;20217;-79
2021/10/31 12:19:40;;;;;;;7.60;6.97;;;15.90;99.90;;;;;;4997633;28;20270;-81
2021/10/31 12:22:14;;;;;;;6.63;6.13;;;16.10;99.90;;;;;;4997777;28;20220;-81
2021/10/31 12:24:42;;;;;;;7.40;6.70;;;16.10;99.90;;;;;;4997304;28;20195;-79
2021/10/31 12:27:20;;;;;;;7.23;6.53;;;16.10;99.90;;;;;;4998402;28;20183;-80
2021/10/31 12:30:37;;;;;;;6.83;6.23;;;16.20;99.90;;;;;;4996094;28;20762;-80
2021/10/31 12:33:05;;;;;;;5.67;5.17;;;16.10;99.90;;;;;;4997255;28;20181;-79
2021/10/31 12:35:37;;;;;;;6.37;5.07;;;16.10;99.90;;;;;;4996074;28;20187;-79
2021/10/31 12:38:23;;;;;;;9.57;5.60;;;16.10;99.90;;;;;;4996834;28;20655;-80
2021/10/31 12:41:11;;;;;;;7.67;5.70;;;16.10;99.90;;;;;;4995837;28;20196;-80
2021/10/31 12:43:50;;;;;;;5.80;5.30;;;16.20;99.90;;;;;;4989381;28;20315;-80
2021/10/31 12:46:34;;;;;;;5.70;5.20;;;16.30;99.90;;;;;;4997902;28;20701;-79
2021/10/31 12:49:03;;;;;;;5.50;5.00;;;16.30;99.90;;;;;;4997487;28;20255;-79